Time;durP1;ratioP1;P1;durP2;ratioP2;P2;SDS_P1;SDS_P2;PMS_P1;PMS_P2;Temp;Humidity;BMP_temperature;BMP_pressure;BME280_temperature;BME280_humidity;BME280_pressure;Samples;Min_cycle;Max_cycle;Signal;HPM_P1;HPM_P2
2022/08/25 12:53:39;;;;;;;;;18.75;15.50;;;;;29.67;100.00;101497.91;4326314;32;51070;-52
2022/08/25 12:56:26;;;;;;;;;11.75;11.00;;;;;29.81;100.00;101506.00;5076537;27;51148;-51
2022/08/25 12:59:18;;;;;;;;;17.00;13.75;;;;;29.93;100.00;101495.13;5095440;27;51608;-51
2022/08/25 13:02:38;;;;;;;;;15.75;14.50;;;;;30.05;100.00;101491.50;5096763;27;51182;-50
2022/08/25 13:05:46;;;;;;;;;17.25;14.25;;;;;30.16;100.00;101473.34;5056801;27;51184;-52
2022/08/25 13:08:40;;;;;;;;;18.25;12.50;;;;;30.20;100.00;101473.00;5096964;27;51133;-49
2022/08/25 13:11:34;;;;;;;;;15.25;13.00;;;;;30.22;100.00;101471.00;5097269;27;51106;-51
2022/08/25 13:14:41;;;;;;;;;18.00;12.25;;;;;30.26;100.00;101455.19;5095779;27;51789;-48
2022/08/25 13:17:34;;;;;;;;;18.25;12.50;;;;;30.29;100.00;101441.22;5096685;27;51452;-53
2022/08/25 13:20:28;;;;;;;;;22.25;13.75;;;;;30.29;100.00;101436.63;5093791;27;51582;-50
2022/08/25 13:23:25;;;;;;;;;12.50;11.00;;;;;30.27;100.00;101427.63;5076627;27;50995;-52
2022/08/25 13:26:22;;;;;;;;;12.25;9.50;;;;;30.28;100.00;101415.66;5075277;27;51514;-52
2022/08/25 13:29:07;;;;;;;;;15.75;14.00;;;;;30.26;100.00;101420.38;5095682;27;51434;-50
2022/08/25 13:31:53;;;;;;;;;22.75;18.25;;;;;30.20;100.00;101418.13;5096872;27;51484;-51
2022/08/25 13:34:40;;;;;;;;;15.75;13.75;;;;;30.16;100.00;101412.97;5096503;27;51026;-50
2022/08/25 13:37:28;;;;;;;;;18.75;13.00;;;;;30.07;100.00;101417.28;5096687;27;51198;-52
2022/08/25 13:40:21;;;;;;;;;17.00;14.00;;;;;30.05;100.00;101408.28;5096320;27;51140;-52
2022/08/25 13:43:09;;;;;;;;;19.75;13.25;;;;;30.11;100.00;101405.97;5096513;27;51542;-50
2022/08/25 13:45:53;;;;;;;;;19.00;15.00;;;;;30.06;100.00;101399.94;5095288;27;52286;-52
2022/08/25 13:48:40;;;;;;;;;15.25;15.25;;;;;30.04;100.00;101398.31;5095508;27;51153;-48
2022/08/25 13:51:28;;;;;;;;;19.00;15.50;;;;;30.11;100.00;101405.06;5095795;27;51129;-48
2022/08/25 13:54:26;;;;;;;;;16.75;15.00;;;;;30.18;100.00;101397.25;5082221;27;51630;-50
2022/08/25 13:57:25;;;;;;;;;23.00;15.50;;;;;30.16;100.00;101394.63;5081552;27;51103;-53
2022/08/25 14:00:10;;;;;;;;;25.00;19.75;;;;;30.13;100.00;101392.09;5081364;27;51217;-53
2022/08/25 14:02:55;;;;;;;;;18.75;18.00;;;;;30.10;100.00;101395.97;5082767;27;51169;-50
2022/08/25 14:05:42;;;;;;;;;15.00;14.00;;;;;30.08;100.00;101394.34;5079127;27;51279;-49
2022/08/25 14:08:37;;;;;;;;;24.00;22.50;;;;;30.06;100.00;101388.94;5061187;28;51890;-49
2022/08/25 14:11:42;;;;;;;;;30.25;25.25;;;;;29.92;100.00;101389.97;5060570;28;51185;-52
2022/08/25 14:14:26;;;;;;;;;35.25;30.00;;;;;29.88;100.00;101393.97;5060872;28;51191;-48
2022/08/25 14:17:16;;;;;;;;;24.75;21.50;;;;;29.84;100.00;101385.06;5060536;28;51372;-51
2022/08/25 14:20:01;;;;;;;;;17.50;16.25;;;;;29.78;100.00;101387.41;5077801;27;51504;-47
2022/08/25 14:22:55;;;;;;;;;22.50;16.50;;;;;29.76;100.00;101383.91;5061018;27;51844;-51
2022/08/25 14:25:40;;;;;;;;;21.00;15.25;;;;;29.72;100.00;101386.00;5079586;27;51165;-51
2022/08/25 14:28:28;;;;;;;;;17.00;15.00;;;;;29.57;100.00;101387.13;5082002;27;51419;-49
2022/08/25 14:31:16;;;;;;;;;25.00;22.00;;;;;29.51;100.00;101383.88;5081680;27;51603;-50
2022/08/25 14:34:04;;;;;;;;;17.50;14.75;;;;;29.51;100.00;101369.28;5082164;27;51402;-50
2022/08/25 14:36:49;;;;;;;;;12.75;11.75;;;;;29.47;100.00;101376.84;5080440;27;51336;-49
2022/08/25 14:39:33;;;;;;;;;16.25;14.50;;;;;29.42;100.00;101384.53;5081600;27;51190;-49
2022/08/25 14:42:18;;;;;;;;;15.75;13.00;;;;;29.32;100.00;101375.19;5081044;27;51472;-50
2022/08/25 14:45:03;;;;;;;;;15.00;14.25;;;;;29.30;100.00;101372.59;5081559;27;51113;-51
2022/08/25 14:47:48;;;;;;;;;17.00;15.50;;;;;29.25;100.00;101376.66;5081452;27;51463;-51
2022/08/25 14:50:34;;;;;;;;;18.25;14.50;;;;;29.26;100.00;101375.66;5081288;27;51031;-48
2022/08/25 14:53:19;;;;;;;;;17.25;13.50;;;;;29.14;100.00;101366.47;5081575;27;51637;-47
2022/08/25 14:56:03;;;;;;;;;19.25;14.25;;;;;29.06;100.00;101364.28;5081108;27;51131;-47
2022/08/25 14:58:49;;;;;;;;;18.00;16.00;;;;;28.92;100.00;101371.63;5080905;27;51451;-49
2022/08/25 15:01:33;;;;;;;;;17.00;13.50;;;;;28.85;100.00;101366.69;5081004;27;51141;-53
2022/08/25 15:04:20;;;;;;;;;20.00;17.00;;;;;28.82;100.00;101365.06;5079240;27;51164;-52
2022/08/25 15:09:06;;;;;;;;;15.75;12.75;;;;;28.80;100.00;101367.03;5079959;27;51408;-53
2022/08/25 15:10:10;;;;;;;;;14.50;14.25;;;;;28.80;100.00;101360.69;5080694;27;51154;-48
2022/08/25 15:12:54;;;;;;;;;15.00;13.75;;;;;28.74;100.00;101351.91;5080032;27;51227;-49
2022/08/25 15:15:43;;;;;;;;;13.00;8.50;;;;;28.71;100.00;101348.47;5078504;27;51126;-52
2022/08/25 15:18:28;;;;;;;;;14.25;11.50;;;;;28.65;100.00;101357.13;5079513;27;51131;-51
2022/08/25 15:21:13;;;;;;;;;22.50;15.00;;;;;28.56;100.00;101354.06;5059123;28;51364;-51
2022/08/25 15:23:59;;;;;;;;;15.75;14.75;;;;;28.67;100.00;101356.03;5059353;28;51508;-51
2022/08/25 15:26:52;;;;;;;;;12.50;12.00;;;;;28.77;100.00;101350.84;5059004;28;51133;-52
2022/08/25 15:29:39;;;;;;;;;17.25;14.50;;;;;28.82;100.00;101342.28;5070659;27;51210;-51
2022/08/25 15:32:24;;;;;;;;;13.25;8.50;;;;;28.86;100.00;101332.84;5079968;27;51376;-52
2022/08/25 15:35:08;;;;;;;;;16.50;12.00;;;;;28.77;100.00;101331.66;5080566;27;51037;-53
2022/08/25 15:37:53;;;;;;;;;20.25;15.75;;;;;28.76;100.00;101313.47;5080600;27;51414;-48
2022/08/25 15:40:38;;;;;;;;;17.25;13.50;;;;;28.73;100.00;101314.56;5080376;27;51144;-50
2022/08/25 15:43:23;;;;;;;;;18.50;17.00;;;;;28.61;100.00;101321.75;5080497;27;51118;-50
2022/08/25 15:46:07;;;;;;;;;18.75;16.00;;;;;28.50;100.00;101326.25;5079066;27;51616;-50
2022/08/25 15:48:52;;;;;;;;;20.50;13.25;;;;;28.48;100.00;101322.75;5079191;27;51433;-51
2022/08/25 15:51:37;;;;;;;;;14.75;14.25;;;;;28.44;100.00;101314.72;5080039;27;51137;-52
2022/08/25 15:54:22;;;;;;;;;20.50;17.50;;;;;28.37;100.00;101304.31;5079465;27;51252;-52
2022/08/25 15:57:07;;;;;;;;;13.00;12.50;;;;;28.34;100.00;101302.69;5077852;27;51270;-51
2022/08/25 15:59:52;;;;;;;;;19.50;16.00;;;;;28.26;100.00;101313.28;5078092;27;51188;-51
2022/08/25 16:02:38;;;;;;;;;18.75;12.00;;;;;28.20;100.00;101314.59;5058174;28;51517;-49
2022/08/25 16:05:22;;;;;;;;;21.00;16.75;;;;;28.18;100.00;101316.56;5076470;27;51298;-51
2022/08/25 16:08:07;;;;;;;;;24.00;13.50;;;;;28.22;100.00;101314.47;5078939;27;51112;-53
2022/08/25 16:10:51;;;;;;;;;20.50;14.75;;;;;28.20;100.00;101319.22;5078994;27;51202;-52
2022/08/25 16:13:36;;;;;;;;;19.00;16.75;;;;;28.23;100.00;101321.72;5080365;27;51557;-51
2022/08/25 16:16:23;;;;;;;;;17.00;12.50;;;;;28.29;100.00;101322.16;5079328;27;51223;-54
2022/08/25 16:19:08;;;;;;;;;15.50;9.75;;;;;28.28;100.00;101314.06;5080364;27;51130;-52
2022/08/25 16:21:52;;;;;;;;;10.75;10.50;;;;;28.28;100.00;101314.94;5065729;27;51508;-49
2022/08/25 16:24:43;;;;;;;;;15.50;13.00;;;;;28.22;100.00;101312.63;5059882;28;50994;-52
2022/08/25 16:27:28;;;;;;;;;16.50;12.25;;;;;28.16;100.00;101325.88;5059567;28;51210;-50
2022/08/25 16:30:13;;;;;;;;;15.00;12.00;;;;;28.13;100.00;101322.34;5059087;28;51123;-51
2022/08/25 16:32:57;;;;;;;;;14.75;13.00;;;;;28.09;100.00;101331.78;5059671;28;51097;-51
2022/08/25 16:35:42;;;;;;;;;20.00;14.50;;;;;28.10;100.00;101329.91;5059241;28;51114;-52
2022/08/25 16:38:27;;;;;;;;;16.00;12.50;;;;;28.10;100.00;101319.81;5058253;28;51478;-53
2022/08/25 16:41:17;;;;;;;;;14.00;11.25;;;;;28.09;100.00;101334.50;5059292;28;51227;-52
2022/08/25 16:44:05;;;;;;;;;14.00;11.25;;;;;28.06;100.00;101331.03;5060376;28;51116;-50
2022/08/25 16:46:52;;;;;;;;;15.75;12.75;;;;;27.94;100.00;101321.81;5057238;28;51270;-51
2022/08/25 16:49:38;;;;;;;;;18.25;14.25;;;;;27.92;100.00;101327.41;5058107;28;51250;-52
2022/08/25 16:55:27;;;;;;;;;15.50;13.25;;;;;27.82;100.00;101339.97;5060019;28;51237;-52
2022/08/25 16:58:12;;;;;;;;;15.25;11.50;;;;;27.84;100.00;101335.22;5056454;28;51185;-47
2022/08/25 17:01:04;;;;;;;;;11.75;10.50;;;;;27.78;100.00;101327.47;5057403;28;51515;-52
2022/08/25 17:03:54;;;;;;;;;13.25;13.00;;;;;27.74;100.00;101329.53;5059477;28;51466;-53
2022/08/25 17:06:41;;;;;;;;;14.00;14.00;;;;;27.72;100.00;101344.28;5063277;28;51126;-49
2022/08/25 17:09:26;;;;;;;;;17.50;16.00;;;;;27.69;100.00;101356.28;5061009;28;51235;-50
2022/08/25 17:12:10;;;;;;;;;19.00;13.00;;;;;27.68;100.00;101362.72;5061237;28;51957;-54
2022/08/25 17:14:54;;;;;;;;;18.75;15.25;;;;;27.66;100.00;101357.38;5063312;28;51102;-50
2022/08/25 17:17:39;;;;;;;;;16.00;10.50;;;;;27.67;100.00;101350.06;5064531;28;51415;-52
2022/08/25 17:20:23;;;;;;;;;14.00;12.00;;;;;27.60;100.00;101344.13;5058683;28;51231;-51
2022/08/25 17:23:07;;;;;;;;;14.50;10.50;;;;;27.49;100.00;101338.47;5059082;28;51368;-48
2022/08/25 17:25:52;;;;;;;;;14.25;10.00;;;;;27.37;100.00;101346.47;5058692;28;51517;-50
2022/08/25 17:28:37;;;;;;;;;12.00;6.00;;;;;27.34;100.00;101343.94;5062662;28;51056;-52
2022/08/25 17:31:25;;;;;;;;;12.25;10.75;;;;;27.30;100.00;101353.28;5075446;27;51034;-50
2022/08/25 17:34:12;;;;;;;;;18.25;17.25;;;;;27.29;100.00;101340.63;5070312;27;51178;-52
2022/08/25 17:36:57;;;;;;;;;17.75;12.25;;;;;27.28;100.00;101337.97;5062748;28;51529;-50
2022/08/25 17:39:42;;;;;;;;;20.25;13.00;;;;;27.26;100.00;101345.41;5062885;28;51144;-48
2022/08/25 17:42:26;;;;;;;;;14.75;11.00;;;;;27.20;100.00;101349.41;5062388;28;51444;-51
2022/08/25 17:45:10;;;;;;;;;14.50;12.00;;;;;27.16;100.00;101350.59;5062158;28;51230;-52
2022/08/25 17:47:55;;;;;;;;;18.00;14.75;;;;;27.12;100.00;101346.28;5062454;28;51097;-49
2022/08/25 17:50:40;;;;;;;;;15.25;13.25;;;;;27.19;100.00;101354.00;5062133;28;51162;-51
2022/08/25 17:53:26;;;;;;;;;16.00;12.00;;;;;27.15;100.00;101357.03;5062105;28;51403;-53
2022/08/25 17:56:13;;;;;;;;;12.50;12.50;;;;;27.10;100.00;101356.44;5062140;28;51092;-51
2022/08/25 17:59:18;;;;;;;;;13.25;11.25;;;;;27.06;100.00;101355.75;5065299;27;51251;-49
2022/08/25 18:02:09;;;;;;;;;13.75;12.25;;;;;27.05;100.00;101356.72;5071528;27;51109;-50
2022/08/25 18:04:54;;;;;;;;;14.50;12.25;;;;;27.05;100.00;101354.88;5059842;27;51321;-51
2022/08/25 18:07:39;;;;;;;;;21.50;12.50;;;;;27.05;100.00;101362.19;5065938;27;51385;-51
2022/08/25 18:10:24;;;;;;;;;14.50;11.50;;;;;27.01;100.00;101360.66;5080464;27;51297;-50
2022/08/25 18:13:09;;;;;;;;;27.50;20.00;;;;;27.00;100.00;101375.28;5067212;27;51100;-50
2022/08/25 18:15:53;;;;;;;;;17.50;14.50;;;;;27.01;100.00;101366.13;5061907;28;51200;-51
2022/08/25 18:18:39;;;;;;;;;15.25;12.75;;;;;27.01;100.00;101377.91;5066185;27;51160;-48
2022/08/25 18:21:26;;;;;;;;;21.75;16.25;;;;;27.03;100.00;101381.41;5064901;27;51200;-50
2022/08/25 18:24:11;;;;;;;;;22.00;15.25;;;;;27.03;100.00;101386.88;5061863;28;51104;-51
2022/08/25 18:26:55;;;;;;;;;16.25;14.00;;;;;27.00;100.00;101386.19;5061615;28;51164;-52
2022/08/25 18:29:40;;;;;;;;;13.25;12.50;;;;;26.97;100.00;101395.47;5061814;28;51163;-50
2022/08/25 18:32:26;;;;;;;;;18.75;12.75;;;;;26.87;100.00;101383.38;5061607;28;51063;-51
2022/08/25 18:35:10;;;;;;;;;13.50;13.50;;;;;26.90;100.00;101396.81;5069769;27;51252;-53
2022/08/25 18:41:01;;;;;;;;;8.50;5.00;;;;;26.99;100.00;101409.03;5061431;28;51143;-51
2022/08/25 18:43:46;;;;;;;;;17.50;13.75;;;;;26.99;100.00;101409.88;5061316;28;51552;-54
2022/08/25 18:46:31;;;;;;;;;12.00;9.00;;;;;26.97;100.00;101417.31;5061246;28;51050;-53
2022/08/25 18:49:16;;;;;;;;;18.00;13.25;;;;;26.96;100.00;101414.66;5061664;28;51044;-52
2022/08/25 18:52:00;;;;;;;;;13.50;10.75;;;;;26.98;100.00;101419.06;5060832;28;51225;-53
2022/08/25 18:54:45;;;;;;;;;18.25;14.75;;;;;26.96;100.00;101431.03;5060941;28;51132;-48
2022/08/25 18:57:29;;;;;;;;;17.50;12.00;;;;;26.99;100.00;101428.13;5061195;28;51099;-52
2022/08/25 19:00:17;;;;;;;;;11.75;11.75;;;;;27.00;100.00;101432.63;5080170;27;51574;-53
2022/08/25 19:03:01;;;;;;;;;19.25;13.75;;;;;27.00;100.00;101441.69;5081134;27;51113;-50
2022/08/25 19:05:47;;;;;;;;;14.25;12.50;;;;;26.99;100.00;101437.19;5081228;27;51155;-52
2022/08/25 19:08:32;;;;;;;;;15.00;13.00;;;;;26.99;100.00;101436.31;5065248;27;51106;-50
2022/08/25 19:11:17;;;;;;;;;18.25;11.75;;;;;26.98;100.00;101449.13;5065620;27;51048;-51
2022/08/25 19:14:02;;;;;;;;;13.25;10.75;;;;;26.95;100.00;101441.09;5079981;27;51137;-53
2022/08/25 19:16:47;;;;;;;;;18.25;12.50;;;;;26.91;100.00;101432.22;5072202;27;51124;-52
2022/08/25 19:19:31;;;;;;;;;22.75;15.50;;;;;26.90;100.00;101437.75;5068859;27;51125;-53
2022/08/25 19:22:15;;;;;;;;;15.00;13.50;;;;;26.93;100.00;101459.44;5060655;28;51408;-51
2022/08/25 19:25:00;;;;;;;;;14.25;13.25;;;;;26.94;100.00;101465.75;5060109;28;51050;-54
2022/08/25 19:27:46;;;;;;;;;15.00;14.00;;;;;26.93;100.00;101466.75;5059516;28;51195;-52
2022/08/25 19:30:32;;;;;;;;;16.50;11.25;;;;;26.91;100.00;101465.00;5060401;28;51212;-55
2022/08/25 19:33:17;;;;;;;;;16.50;14.25;;;;;26.90;100.00;101467.81;5060358;28;51104;-51
2022/08/25 19:36:02;;;;;;;;;13.50;11.50;;;;;26.91;100.00;101461.38;5059841;28;51085;-53
2022/08/25 19:38:47;;;;;;;;;21.75;16.00;;;;;26.89;100.00;101468.78;5060589;28;51137;-53
2022/08/25 19:41:32;;;;;;;;;14.75;13.50;;;;;26.88;100.00;101472.47;5060055;28;51436;-51
2022/08/25 19:44:17;;;;;;;;;15.75;13.25;;;;;26.88;100.00;101483.41;5065934;27;51060;-54
2022/08/25 19:47:03;;;;;;;;;16.25;13.50;;;;;26.90;100.00;101478.72;5060482;27;51272;-51
2022/08/25 19:49:48;;;;;;;;;15.50;12.25;;;;;26.86;100.00;101478.03;5079271;27;51188;-54
2022/08/25 19:52:33;;;;;;;;;20.75;14.50;;;;;26.88;100.00;101480.66;5080124;27;51216;-50
2022/08/25 19:55:18;;;;;;;;;18.50;15.75;;;;;26.87;100.00;101487.13;5080102;27;51164;-54
2022/08/25 19:58:03;;;;;;;;;18.50;14.25;;;;;26.83;100.00;101482.81;5077777;27;51485;-53
2022/08/25 20:00:47;;;;;;;;;12.25;12.00;;;;;26.83;100.00;101486.41;5061184;28;51193;-51
2022/08/25 20:03:32;;;;;;;;;13.50;12.00;;;;;26.81;100.00;101482.91;5061342;27;51077;-51
2022/08/25 20:06:17;;;;;;;;;17.75;13.50;;;;;26.78;100.00;101483.09;5060943;27;51435;-53
2022/08/25 20:09:04;;;;;;;;;16.75;13.00;;;;;26.76;100.00;101483.16;5044479;28;51342;-52
2022/08/25 20:11:49;;;;;;;;;13.50;12.25;;;;;26.75;100.00;101477.78;5060227;28;51456;-52
2022/08/25 20:14:33;;;;;;;;;17.75;13.25;;;;;26.76;100.00;101485.00;5063322;27;51134;-53
2022/08/25 20:17:18;;;;;;;;;15.50;12.25;;;;;26.75;100.00;101485.97;5083115;27;51170;-55
2022/08/25 20:20:05;;;;;;;;;21.50;11.75;;;;;26.76;100.00;101490.47;5079509;27;51431;-53
2022/08/25 20:22:50;;;;;;;;;14.50;12.50;;;;;26.75;100.00;101489.59;5079513;27;51355;-53
2022/08/25 20:25:35;;;;;;;;;15.00;11.00;;;;;26.74;100.00;101482.38;5069597;27;51310;-53
2022/08/25 20:28:19;;;;;;;;;16.25;13.25;;;;;26.70;100.00;101478.06;5073738;27;51514;-50
2022/08/25 20:31:03;;;;;;;;;16.75;13.75;;;;;26.70;100.00;101486.25;5067837;27;51513;-55
2022/08/25 20:33:48;;;;;;;;;12.50;10.75;;;;;26.69;100.00;101489.06;5070216;27;52585;-52
2022/08/25 20:36:33;;;;;;;;;19.25;15.50;;;;;26.68;100.00;101488.19;5069523;27;51568;-48
2022/08/25 20:39:20;;;;;;;;;15.25;11.50;;;;;26.61;100.00;101487.66;5073119;27;51175;-47
2022/08/25 20:42:07;;;;;;;;;15.50;10.75;;;;;26.58;100.00;101485.13;5071520;27;51123;-49
2022/08/25 20:44:52;;;;;;;;;21.50;15.00;;;;;26.59;100.00;101486.91;5070618;28;51546;-54
2022/08/25 20:47:37;;;;;;;;;17.50;13.50;;;;;26.63;100.00;101487.59;5070320;28;51222;-52
2022/08/25 20:50:22;;;;;;;;;17.75;14.25;;;;;26.65;100.00;101492.94;5070460;28;51065;-51
2022/08/25 20:53:07;;;;;;;;;16.50;13.75;;;;;26.65;100.00;101492.94;5073733;28;52653;-47
2022/08/25 20:55:52;;;;;;;;;23.75;18.75;;;;;26.64;100.00;101499.38;5070635;28;51317;-48
2022/08/25 20:58:43;;;;;;;;;15.50;13.00;;;;;26.64;100.00;101497.53;5071137;28;51198;-51
2022/08/25 21:01:38;;;;;;;;;11.50;10.25;;;;;26.66;100.00;101498.34;5069433;27;51494;-50
2022/08/25 21:04:24;;;;;;;;;14.00;11.75;;;;;26.64;100.00;101497.53;5073971;27;51105;-51
2022/08/25 21:07:09;;;;;;;;;20.25;17.00;;;;;26.65;100.00;101496.56;5072849;27;51559;-52
2022/08/25 21:09:53;;;;;;;;;13.00;12.00;;;;;26.65;100.00;101491.13;5074421;27;51092;-51
2022/08/25 21:12:39;;;;;;;;;17.75;13.25;;;;;26.65;100.00;101491.13;5074488;27;51119;-49
2022/08/25 21:15:24;;;;;;;;;17.25;14.00;;;;;26.63;100.00;101494.88;5057739;27;51118;-52
2022/08/25 21:18:08;;;;;;;;;15.50;12.00;;;;;26.61;100.00;101492.25;5073495;27;51209;-52
2022/08/25 21:20:53;;;;;;;;;18.25;16.00;;;;;26.62;100.00;101502.22;5073851;27;51500;-53
2022/08/25 21:23:39;;;;;;;;;18.25;14.50;;;;;26.59;100.00;101503.28;5074413;27;51120;-51
2022/08/25 21:26:27;;;;;;;;;13.00;12.00;;;;;26.55;100.00;101509.00;5069815;27;51349;-52
2022/08/25 21:29:12;;;;;;;;;13.75;10.50;;;;;26.51;100.00;101519.19;5072765;27;51153;-52
2022/08/25 21:31:59;;;;;;;;;13.00;12.75;;;;;26.51;100.00;101527.38;5072686;27;51729;-50
2022/08/25 21:34:44;;;;;;;;;15.00;12.50;;;;;26.52;100.00;101531.00;5073920;27;51588;-52
2022/08/25 21:37:29;;;;;;;;;14.00;12.25;;;;;26.53;100.00;101532.78;5074598;27;51515;-51
2022/08/25 21:40:14;;;;;;;;;14.50;11.25;;;;;26.54;100.00;101534.53;5074331;27;51140;-53
2022/08/25 21:42:59;;;;;;;;;19.50;11.50;;;;;26.54;100.00;101529.09;5073004;27;51088;-52
2022/08/25 21:45:43;;;;;;;;;15.00;12.50;;;;;26.55;100.00;101539.91;5071986;27;51042;-53
2022/08/25 21:48:28;;;;;;;;;15.50;13.75;;;;;26.58;100.00;101538.81;5071611;27;51090;-51
2022/08/25 21:51:14;;;;;;;;;16.75;13.25;;;;;26.57;100.00;101542.53;5073763;27;51246;-50
2022/08/25 21:54:10;;;;;;;;;14.50;13.50;;;;;26.52;100.00;101540.06;5075655;27;51124;-48
2022/08/25 21:57:08;;;;;;;;;16.00;11.25;;;;;26.56;100.00;101552.56;5075125;27;51472;-50
2022/08/25 21:59:52;;;;;;;;;17.50;12.75;;;;;26.55;100.00;101553.53;5075407;27;51140;-48
2022/08/25 22:02:37;;;;;;;;;14.75;12.25;;;;;26.55;100.00;101559.00;5072375;27;51116;-51
2022/08/25 22:05:21;;;;;;;;;13.00;12.25;;;;;26.52;100.00;101555.56;5070437;27;51116;-51
2022/08/25 22:08:15;;;;;;;;;13.50;11.25;;;;;26.52;100.00;101563.75;5074086;27;51064;-52
2022/08/25 22:11:00;;;;;;;;;20.50;15.00;;;;;26.54;100.00;101567.28;5074631;27;51211;-49
2022/08/25 22:13:46;;;;;;;;;11.50;10.50;;;;;26.52;100.00;101567.34;5071046;27;51191;-51
2022/08/25 22:16:33;;;;;;;;;13.50;12.25;;;;;26.51;100.00;101565.59;5072266;27;51147;-52
2022/08/25 22:19:18;;;;;;;;;13.50;11.75;;;;;26.52;100.00;101561.91;5075119;27;51134;-54
2022/08/25 22:22:05;;;;;;;;;15.75;13.25;;;;;26.50;100.00;101557.50;5075652;27;51345;-52
2022/08/25 22:24:51;;;;;;;;;19.00;12.25;;;;;26.55;100.00;101560.88;5067083;27;51084;-51
2022/08/25 22:27:37;;;;;;;;;11.25;10.25;;;;;26.55;100.00;101559.00;5082190;27;51302;-51
2022/08/25 22:30:25;;;;;;;;;15.00;11.50;;;;;26.55;100.00;101548.09;5080725;27;51236;-54
2022/08/25 22:33:11;;;;;;;;;18.00;10.00;;;;;26.55;100.00;101558.13;5082162;27;51081;-54
2022/08/25 22:35:56;;;;;;;;;10.50;9.25;;;;;26.54;100.00;101553.66;5081987;27;51407;-51
2022/08/25 22:38:41;;;;;;;;;13.00;8.00;;;;;26.55;100.00;101548.09;5081708;27;51315;-52
2022/08/25 22:41:27;;;;;;;;;14.75;10.00;;;;;26.56;100.00;101543.53;5081477;27;51395;-53
2022/08/25 22:44:12;;;;;;;;;12.75;8.50;;;;;26.56;100.00;101529.88;5082464;27;51343;-52
2022/08/25 22:46:56;;;;;;;;;10.00;10.00;;;;;26.56;100.00;101538.06;5061527;28;51097;-52
2022/08/25 22:49:41;;;;;;;;;16.00;11.50;;;;;26.55;100.00;101533.56;5061045;28;51018;-51
2022/08/25 22:52:26;;;;;;;;;12.25;11.75;;;;;26.54;100.00;101532.69;5077055;27;52414;-50
2022/08/25 22:55:10;;;;;;;;;15.50;11.75;;;;;26.54;100.00;101526.34;5081313;27;51170;-53
2022/08/25 22:57:55;;;;;;;;;15.00;10.25;;;;;26.51;100.00;101521.94;5061648;28;51090;-50
2022/08/25 23:00:40;;;;;;;;;14.25;12.50;;;;;26.53;100.00;101521.84;5060787;28;51216;-53
2022/08/25 23:03:26;;;;;;;;;14.25;10.25;;;;;26.53;100.00;101513.66;5061190;28;51002;-53
2022/08/25 23:06:20;;;;;;;;;12.50;11.25;;;;;26.51;100.00;101512.88;5061111;28;51076;-51
2022/08/25 23:09:07;;;;;;;;;15.00;12.25;;;;;26.50;100.00;101505.66;5061305;28;51069;-53
2022/08/25 23:11:51;;;;;;;;;14.50;11.25;;;;;26.47;100.00;101497.66;5059421;28;51331;-53
2022/08/25 23:14:37;;;;;;;;;17.75;12.75;;;;;26.41;100.00;101502.50;5060743;28;51124;-52
2022/08/25 23:17:21;;;;;;;;;11.75;10.00;;;;;26.38;100.00;101496.34;5076827;27;51162;-52
2022/08/25 23:22:07;;;;;;;;;14.50;10.50;;;;;26.37;100.00;101505.50;5080898;27;51053;-54
2022/08/25 23:23:11;;;;;;;;;21.00;12.25;;;;;26.37;100.00;101505.50;5081170;27;51121;-52
2022/08/25 23:25:55;;;;;;;;;12.50;10.25;;;;;26.39;100.00;101514.50;5079748;27;51144;-54
2022/08/25 23:28:41;;;;;;;;;9.25;7.25;;;;;26.41;100.00;101501.59;5064372;27;51852;-52
2022/08/25 23:31:26;;;;;;;;;15.50;11.00;;;;;26.43;100.00;101514.22;5060440;28;51090;-53
2022/08/25 23:34:10;;;;;;;;;14.25;9.25;;;;;26.47;100.00;101512.19;5072816;27;51400;-53
2022/08/25 23:36:56;;;;;;;;;14.25;12.25;;;;;26.47;100.00;101509.47;5080413;27;51516;-53
2022/08/25 23:39:44;;;;;;;;;14.25;11.25;;;;;26.48;100.00;101513.03;5080672;27;51084;-53
2022/08/25 23:42:28;;;;;;;;;11.75;10.75;;;;;26.49;100.00;101512.09;5070945;27;51301;-53
2022/08/25 23:45:14;;;;;;;;;14.00;9.50;;;;;26.48;100.00;101513.03;5060229;28;51169;-52
2022/08/25 23:47:59;;;;;;;;;16.75;13.50;;;;;26.48;100.00;101513.03;5060515;28;51215;-50
2022/08/25 23:50:46;;;;;;;;;18.75;13.50;;;;;26.50;100.00;101513.84;5070316;27;51176;-50
2022/08/25 23:53:32;;;;;;;;;13.00;11.25;;;;;26.50;100.00;101516.56;5059160;28;51288;-52
2022/08/25 23:56:17;;;;;;;;;19.50;11.00;;;;;26.50;100.00;101522.03;5065857;27;51238;-51
2022/08/25 23:59:03;;;;;;;;;19.25;10.50;;;;;26.51;100.00;101519.19;5069891;27;51172;-52
